Terminal Aerodrome Forecast
Issued by NWS Jackson, KY

Home | Current Version | Previous Version | Text Only | Print | Product List | Glossary On
Versions: 1 2 3 4 5 6 7 8 9 10 11 12 13 14 15 16 17 18 19
000
FTUS43 KJKL 010520
TAFJKL
TAF
KJKL 010520Z 0106/0206 VRB03KT P6SM OVC060
     FM011000 VRB03KT 6SM -FZRAPL OVC030
     FM011300 22006KT 3SM -RA OVC012
     FM011600 22009KT 4SM -RA OVC003=

USA.gov is the U.S. government's official web portal to all federal, state and local government web resources and services.